sensor_id;sensor_type;location;lat;lon;timestamp;temperature;humidity
16128;DHT22;8168;49.036;7.690;2023-03-19T00:02:13;8.50;99.90
16128;DHT22;8168;49.036;7.690;2023-03-19T00:04:45;8.50;99.90
16128;DHT22;8168;49.036;7.690;2023-03-19T00:07:16;8.50;99.90
16128;DHT22;8168;49.036;7.690;2023-03-19T00:09:46;8.40;99.90
16128;DHT22;8168;49.036;7.690;2023-03-19T00:12:17;8.40;99.90
16128;DHT22;8168;49.036;7.690;2023-03-19T00:14:48;8.40;99.90
16128;DHT22;8168;49.036;7.690;2023-03-19T00:17:19;8.40;99.90
16128;DHT22;8168;49.036;7.690;2023-03-19T00:19:49;8.30;99.90
16128;DHT22;8168;49.036;7.690;2023-03-19T00:22:20;8.30;99.90
16128;DHT22;8168;49.036;7.690;2023-03-19T00:24:51;8.30;99.90
16128;DHT22;8168;49.036;7.690;2023-03-19T00:27:21;8.20;99.90
16128;DHT22;8168;49.036;7.690;2023-03-19T00:29:52;8.20;99.90
16128;DHT22;8168;49.036;7.690;2023-03-19T00:32:22;8.30;99.90
16128;DHT22;8168;49.036;7.690;2023-03-19T00:34:53;8.10;99.90
16128;DHT22;8168;49.036;7.690;2023-03-19T00:37:24;8.10;99.90
16128;DHT22;8168;49.036;7.690;2023-03-19T00:39:54;8.10;99.90
16128;DHT22;8168;49.036;7.690;2023-03-19T00:42:25;8.20;99.90
16128;DHT22;8168;49.036;7.690;2023-03-19T00:44:56;8.10;99.90
16128;DHT22;8168;49.036;7.690;2023-03-19T00:47:27;8.20;99.90
16128;DHT22;8168;49.036;7.690;2023-03-19T00:49:57;8.10;99.90
16128;DHT22;8168;49.036;7.690;2023-03-19T00:52:28;8.10;99.90
16128;DHT22;8168;49.036;7.690;2023-03-19T00:54:59;8.10;99.90
16128;DHT22;8168;49.036;7.690;2023-03-19T00:57:30;8.10;99.90
16128;DHT22;8168;49.036;7.690;2023-03-19T01:00:00;8.10;99.90
16128;DHT22;8168;49.036;7.690;2023-03-19T01:02:31;8.10;99.90
16128;DHT22;8168;49.036;7.690;2023-03-19T01:05:02;8.20;99.90
16128;DHT22;8168;49.036;7.690;2023-03-19T01:07:32;8.20;99.90
16128;DHT22;8168;49.036;7.690;2023-03-19T01:10:03;8.10;99.90
16128;DHT22;8168;49.036;7.690;2023-03-19T01:12:34;8.20;99.90
16128;DHT22;8168;49.036;7.690;2023-03-19T01:15:06;8.10;99.90
16128;DHT22;8168;49.036;7.690;2023-03-19T01:17:37;8.20;99.90
16128;DHT22;8168;49.036;7.690;2023-03-19T01:20:09;8.20;99.90
16128;DHT22;8168;49.036;7.690;2023-03-19T01:22:42;8.20;99.90
16128;DHT22;8168;49.036;7.690;2023-03-19T01:25:13;8.20;99.90
16128;DHT22;8168;49.036;7.690;2023-03-19T01:27:43;8.40;99.90
16128;DHT22;8168;49.036;7.690;2023-03-19T01:30:14;8.30;99.90
16128;DHT22;8168;49.036;7.690;2023-03-19T01:32:45;8.30;99.90
16128;DHT22;8168;49.036;7.690;2023-03-19T01:35:16;8.30;99.90
16128;DHT22;8168;49.036;7.690;2023-03-19T01:37:46;8.30;99.90
16128;DHT22;8168;49.036;7.690;2023-03-19T01:40:17;8.30;99.90
16128;DHT22;8168;49.036;7.690;2023-03-19T01:43:12;8.40;99.90
16128;DHT22;8168;49.036;7.690;2023-03-19T01:45:44;8.40;99.90
16128;DHT22;8168;49.036;7.690;2023-03-19T01:49:06;8.50;99.90
16128;DHT22;8168;49.036;7.690;2023-03-19T01:51:20;8.40;99.90
16128;DHT22;8168;49.036;7.690;2023-03-19T01:53:56;8.50;99.90
16128;DHT22;8168;49.036;7.690;2023-03-19T01:56:31;8.40;99.90
16128;DHT22;8168;49.036;7.690;2023-03-19T01:59:16;8.40;99.90
16128;DHT22;8168;49.036;7.690;2023-03-19T02:04:46;8.50;99.90
16128;DHT22;8168;49.036;7.690;2023-03-19T02:07:19;8.50;99.90
16128;DHT22;8168;49.036;7.690;2023-03-19T02:09:50;8.50;99.90
16128;DHT22;8168;49.036;7.690;2023-03-19T02:12:21;8.40;99.90
16128;DHT22;8168;49.036;7.690;2023-03-19T02:14:52;8.40;99.90
16128;DHT22;8168;49.036;7.690;2023-03-19T02:17:23;8.50;99.90
16128;DHT22;8168;49.036;7.690;2023-03-19T02:22:30;8.50;99.90
16128;DHT22;8168;49.036;7.690;2023-03-19T02:25:10;8.60;99.90
16128;DHT22;8168;49.036;7.690;2023-03-19T02:27:42;8.50;99.90
16128;DHT22;8168;49.036;7.690;2023-03-19T02:30:25;8.50;99.90
16128;DHT22;8168;49.036;7.690;2023-03-19T02:32:56;8.50;99.90
16128;DHT22;8168;49.036;7.690;2023-03-19T02:35:30;8.40;99.90
16128;DHT22;8168;49.036;7.690;2023-03-19T02:38:03;8.40;99.90
16128;DHT22;8168;49.036;7.690;2023-03-19T02:40:43;8.50;99.90
16128;DHT22;8168;49.036;7.690;2023-03-19T02:43:16;8.50;99.90
16128;DHT22;8168;49.036;7.690;2023-03-19T02:45:47;8.50;99.90
16128;DHT22;8168;49.036;7.690;2023-03-19T02:48:18;8.50;99.90
16128;DHT22;8168;49.036;7.690;2023-03-19T02:50:49;8.50;99.90
16128;DHT22;8168;49.036;7.690;2023-03-19T02:53:20;8.40;99.90
16128;DHT22;8168;49.036;7.690;2023-03-19T02:55:50;8.50;99.90
16128;DHT22;8168;49.036;7.690;2023-03-19T02:58:21;8.50;99.90
16128;DHT22;8168;49.036;7.690;2023-03-19T03:00:52;8.50;99.90
16128;DHT22;8168;49.036;7.690;2023-03-19T03:03:23;8.50;99.90
16128;DHT22;8168;49.036;7.690;2023-03-19T03:05:53;8.50;99.90
16128;DHT22;8168;49.036;7.690;2023-03-19T03:08:24;7.90;99.90
16128;DHT22;8168;49.036;7.690;2023-03-19T03:10:54;8.60;99.90
16128;DHT22;8168;49.036;7.690;2023-03-19T03:13:25;8.60;99.90
16128;DHT22;8168;49.036;7.690;2023-03-19T03:15:57;8.60;99.90
16128;DHT22;8168;49.036;7.690;2023-03-19T03:18:28;8.60;99.90
16128;DHT22;8168;49.036;7.690;2023-03-19T03:20:58;8.60;99.90
16128;DHT22;8168;49.036;7.690;2023-03-19T03:23:29;8.60;99.90
16128;DHT22;8168;49.036;7.690;2023-03-19T03:26:00;8.60;99.90
16128;DHT22;8168;49.036;7.690;2023-03-19T03:28:31;8.60;99.90
16128;DHT22;8168;49.036;7.690;2023-03-19T03:31:01;8.60;99.90
16128;DHT22;8168;49.036;7.690;2023-03-19T03:33:33;8.60;99.90
16128;DHT22;8168;49.036;7.690;2023-03-19T03:36:03;8.60;99.90
16128;DHT22;8168;49.036;7.690;2023-03-19T03:38:34;8.50;99.90
16128;DHT22;8168;49.036;7.690;2023-03-19T03:41:05;8.50;99.90
16128;DHT22;8168;49.036;7.690;2023-03-19T03:43:35;8.40;99.90
16128;DHT22;8168;49.036;7.690;2023-03-19T03:46:06;8.40;99.90
16128;DHT22;8168;49.036;7.690;2023-03-19T03:48:38;8.40;99.90
16128;DHT22;8168;49.036;7.690;2023-03-19T03:51:10;8.30;99.90
16128;DHT22;8168;49.036;7.690;2023-03-19T03:53:41;8.40;99.90
16128;DHT22;8168;49.036;7.690;2023-03-19T03:56:11;8.40;99.90
16128;DHT22;8168;49.036;7.690;2023-03-19T03:58:42;10.90;99.90
16128;DHT22;8168;49.036;7.690;2023-03-19T04:01:14;8.40;99.90
16128;DHT22;8168;49.036;7.690;2023-03-19T04:03:45;8.40;99.90
16128;DHT22;8168;49.036;7.690;2023-03-19T04:06:18;8.40;99.90
16128;DHT22;8168;49.036;7.690;2023-03-19T04:08:50;8.40;99.90
16128;DHT22;8168;49.036;7.690;2023-03-19T04:11:21;8.40;99.90
16128;DHT22;8168;49.036;7.690;2023-03-19T04:13:56;8.40;99.90
16128;DHT22;8168;49.036;7.690;2023-03-19T04:16:27;8.40;99.90
16128;DHT22;8168;49.036;7.690;2023-03-19T04:18:58;8.30;99.90
16128;DHT22;8168;49.036;7.690;2023-03-19T04:21:29;8.40;99.90
16128;DHT22;8168;49.036;7.690;2023-03-19T04:24:00;8.30;99.90
16128;DHT22;8168;49.036;7.690;2023-03-19T04:26:31;8.40;99.90
16128;DHT22;8168;49.036;7.690;2023-03-19T04:29:02;8.40;99.90
16128;DHT22;8168;49.036;7.690;2023-03-19T04:31:33;8.40;99.90
16128;DHT22;8168;49.036;7.690;2023-03-19T04:34:04;8.40;99.90
16128;DHT22;8168;49.036;7.690;2023-03-19T04:36:35;8.30;99.90
16128;DHT22;8168;49.036;7.690;2023-03-19T04:39:06;8.30;99.90
16128;DHT22;8168;49.036;7.690;2023-03-19T04:41:36;8.20;99.90
16128;DHT22;8168;49.036;7.690;2023-03-19T04:44:08;8.20;99.90
16128;DHT22;8168;49.036;7.690;2023-03-19T04:46:38;8.20;99.90
16128;DHT22;8168;49.036;7.690;2023-03-19T04:49:09;8.20;99.90
16128;DHT22;8168;49.036;7.690;2023-03-19T04:51:40;8.30;99.90
16128;DHT22;8168;49.036;7.690;2023-03-19T04:54:11;8.20;99.90
16128;DHT22;8168;49.036;7.690;2023-03-19T04:56:42;8.20;99.90
16128;DHT22;8168;49.036;7.690;2023-03-19T04:59:12;8.20;99.90
16128;DHT22;8168;49.036;7.690;2023-03-19T05:01:43;8.20;99.90
16128;DHT22;8168;49.036;7.690;2023-03-19T05:04:13;8.30;99.90
16128;DHT22;8168;49.036;7.690;2023-03-19T05:06:44;8.20;99.90
16128;DHT22;8168;49.036;7.690;2023-03-19T05:09:14;8.20;99.90
16128;DHT22;8168;49.036;7.690;2023-03-19T05:11:45;8.20;99.90
16128;DHT22;8168;49.036;7.690;2023-03-19T05:14:16;8.20;99.90
16128;DHT22;8168;49.036;7.690;2023-03-19T05:16:46;8.20;99.90
16128;DHT22;8168;49.036;7.690;2023-03-19T05:19:17;8.20;99.90
16128;DHT22;8168;49.036;7.690;2023-03-19T05:21:48;8.40;99.90
16128;DHT22;8168;49.036;7.690;2023-03-19T05:24:18;8.20;99.90
16128;DHT22;8168;49.036;7.690;2023-03-19T05:26:49;8.20;99.90
16128;DHT22;8168;49.036;7.690;2023-03-19T05:29:20;8.20;99.90
16128;DHT22;8168;49.036;7.690;2023-03-19T05:31:51;8.20;99.90
16128;DHT22;8168;49.036;7.690;2023-03-19T05:34:21;8.20;99.90
16128;DHT22;8168;49.036;7.690;2023-03-19T05:36:52;8.20;99.90
16128;DHT22;8168;49.036;7.690;2023-03-19T05:39:23;8.20;99.90
16128;DHT22;8168;49.036;7.690;2023-03-19T05:41:54;8.30;99.90
16128;DHT22;8168;49.036;7.690;2023-03-19T05:44:24;8.30;99.90
16128;DHT22;8168;49.036;7.690;2023-03-19T05:46:55;8.30;99.90
16128;DHT22;8168;49.036;7.690;2023-03-19T05:49:26;7.00;99.90
16128;DHT22;8168;49.036;7.690;2023-03-19T05:51:56;8.30;99.90
16128;DHT22;8168;49.036;7.690;2023-03-19T05:54:27;8.30;99.90
16128;DHT22;8168;49.036;7.690;2023-03-19T05:56:58;8.30;99.90
16128;DHT22;8168;49.036;7.690;2023-03-19T05:59:29;8.30;99.90
16128;DHT22;8168;49.036;7.690;2023-03-19T06:01:59;8.30;99.90
16128;DHT22;8168;49.036;7.690;2023-03-19T06:04:30;8.30;99.90
16128;DHT22;8168;49.036;7.690;2023-03-19T06:07:01;8.30;99.90
16128;DHT22;8168;49.036;7.690;2023-03-19T06:09:31;8.20;99.90
16128;DHT22;8168;49.036;7.690;2023-03-19T06:12:02;8.20;99.90
16128;DHT22;8168;49.036;7.690;2023-03-19T06:14:33;8.20;99.90
16128;DHT22;8168;49.036;7.690;2023-03-19T06:17:03;8.30;99.90
16128;DHT22;8168;49.036;7.690;2023-03-19T06:19:34;8.30;99.90
16128;DHT22;8168;49.036;7.690;2023-03-19T06:22:05;8.30;99.90
16128;DHT22;8168;49.036;7.690;2023-03-19T06:24:36;8.30;99.90
16128;DHT22;8168;49.036;7.690;2023-03-19T06:27:07;8.30;99.90
16128;DHT22;8168;49.036;7.690;2023-03-19T06:29:39;8.30;99.90
16128;DHT22;8168;49.036;7.690;2023-03-19T06:32:09;8.30;99.90
16128;DHT22;8168;49.036;7.690;2023-03-19T06:34:40;8.20;99.90
16128;DHT22;8168;49.036;7.690;2023-03-19T06:37:11;8.20;99.90
16128;DHT22;8168;49.036;7.690;2023-03-19T06:39:41;8.20;99.90
16128;DHT22;8168;49.036;7.690;2023-03-19T06:42:12;8.30;99.90
16128;DHT22;8168;49.036;7.690;2023-03-19T06:44:43;8.20;99.90
16128;DHT22;8168;49.036;7.690;2023-03-19T06:47:13;8.20;99.90
16128;DHT22;8168;49.036;7.690;2023-03-19T06:49:44;8.30;99.90
16128;DHT22;8168;49.036;7.690;2023-03-19T06:52:16;8.20;99.90
16128;DHT22;8168;49.036;7.690;2023-03-19T06:54:47;8.20;99.90
16128;DHT22;8168;49.036;7.690;2023-03-19T06:57:17;8.30;99.90
16128;DHT22;8168;49.036;7.690;2023-03-19T06:59:48;8.30;99.90
16128;DHT22;8168;49.036;7.690;2023-03-19T07:02:18;8.30;99.90
16128;DHT22;8168;49.036;7.690;2023-03-19T07:04:49;8.40;99.90
16128;DHT22;8168;49.036;7.690;2023-03-19T07:07:20;8.40;99.90
16128;DHT22;8168;49.036;7.690;2023-03-19T07:09:50;7.80;99.90
16128;DHT22;8168;49.036;7.690;2023-03-19T07:12:21;8.50;99.90
16128;DHT22;8168;49.036;7.690;2023-03-19T07:14:52;8.50;99.90
16128;DHT22;8168;49.036;7.690;2023-03-19T07:17:24;8.60;99.90
16128;DHT22;8168;49.036;7.690;2023-03-19T07:19:55;8.60;99.90
16128;DHT22;8168;49.036;7.690;2023-03-19T07:22:25;8.60;99.90
16128;DHT22;8168;49.036;7.690;2023-03-19T07:24:56;8.60;99.90
16128;DHT22;8168;49.036;7.690;2023-03-19T07:27:27;8.60;99.90
16128;DHT22;8168;49.036;7.690;2023-03-19T07:29:57;8.70;99.90
16128;DHT22;8168;49.036;7.690;2023-03-19T07:32:28;8.70;99.90
16128;DHT22;8168;49.036;7.690;2023-03-19T07:34:58;8.70;99.90
16128;DHT22;8168;49.036;7.690;2023-03-19T07:37:29;8.80;99.90
16128;DHT22;8168;49.036;7.690;2023-03-19T07:40:00;8.80;99.90
16128;DHT22;8168;49.036;7.690;2023-03-19T07:42:30;8.80;99.90
16128;DHT22;8168;49.036;7.690;2023-03-19T07:45:02;8.90;99.90
16128;DHT22;8168;49.036;7.690;2023-03-19T07:47:33;9.00;99.90
16128;DHT22;8168;49.036;7.690;2023-03-19T07:50:04;9.00;99.90
16128;DHT22;8168;49.036;7.690;2023-03-19T07:52:35;9.00;99.90
16128;DHT22;8168;49.036;7.690;2023-03-19T07:55:06;9.10;99.90
16128;DHT22;8168;49.036;7.690;2023-03-19T07:57:37;9.20;99.90
16128;DHT22;8168;49.036;7.690;2023-03-19T08:00:09;9.20;99.90
16128;DHT22;8168;49.036;7.690;2023-03-19T08:02:40;9.30;99.90
16128;DHT22;8168;49.036;7.690;2023-03-19T08:05:12;9.30;99.90
16128;DHT22;8168;49.036;7.690;2023-03-19T08:07:42;9.40;99.90
16128;DHT22;8168;49.036;7.690;2023-03-19T08:10:14;9.40;99.90
16128;DHT22;8168;49.036;7.690;2023-03-19T08:12:45;9.60;99.90
16128;DHT22;8168;49.036;7.690;2023-03-19T08:15:15;9.60;99.90
16128;DHT22;8168;49.036;7.690;2023-03-19T08:17:46;9.70;99.90
16128;DHT22;8168;49.036;7.690;2023-03-19T08:20:17;9.80;99.90
16128;DHT22;8168;49.036;7.690;2023-03-19T08:22:50;9.90;99.90
16128;DHT22;8168;49.036;7.690;2023-03-19T08:25:21;10.00;99.90
16128;DHT22;8168;49.036;7.690;2023-03-19T08:27:51;10.10;99.90
16128;DHT22;8168;49.036;7.690;2023-03-19T08:30:22;10.20;99.90
16128;DHT22;8168;49.036;7.690;2023-03-19T08:32:53;10.30;99.90
16128;DHT22;8168;49.036;7.690;2023-03-19T08:35:24;10.40;99.90
16128;DHT22;8168;49.036;7.690;2023-03-19T08:37:57;10.50;99.90
16128;DHT22;8168;49.036;7.690;2023-03-19T08:40:28;10.70;99.90
16128;DHT22;8168;49.036;7.690;2023-03-19T08:42:58;10.90;99.90
16128;DHT22;8168;49.036;7.690;2023-03-19T08:45:29;11.00;99.90
16128;DHT22;8168;49.036;7.690;2023-03-19T08:48:00;11.20;99.90
16128;DHT22;8168;49.036;7.690;2023-03-19T08:50:30;11.40;99.90
16128;DHT22;8168;49.036;7.690;2023-03-19T08:53:01;11.60;99.90
16128;DHT22;8168;49.036;7.690;2023-03-19T08:55:32;11.80;99.90
16128;DHT22;8168;49.036;7.690;2023-03-19T08:58:02;12.00;99.90
16128;DHT22;8168;49.036;7.690;2023-03-19T09:00:33;12.10;99.90
16128;DHT22;8168;49.036;7.690;2023-03-19T09:03:04;12.30;99.90
16128;DHT22;8168;49.036;7.690;2023-03-19T09:05:36;12.40;99.90
16128;DHT22;8168;49.036;7.690;2023-03-19T09:08:07;12.50;99.90
16128;DHT22;8168;49.036;7.690;2023-03-19T09:10:38;12.70;99.90
16128;DHT22;8168;49.036;7.690;2023-03-19T09:13:08;12.80;99.90
16128;DHT22;8168;49.036;7.690;2023-03-19T09:15:39;12.90;99.90
16128;DHT22;8168;49.036;7.690;2023-03-19T09:18:09;13.00;99.90
16128;DHT22;8168;49.036;7.690;2023-03-19T09:20:41;13.10;99.90
16128;DHT22;8168;49.036;7.690;2023-03-19T09:23:12;13.20;99.90
16128;DHT22;8168;49.036;7.690;2023-03-19T09:25:42;13.40;99.90
16128;DHT22;8168;49.036;7.690;2023-03-19T09:28:13;13.50;99.90
16128;DHT22;8168;49.036;7.690;2023-03-19T09:30:48;13.60;99.90
16128;DHT22;8168;49.036;7.690;2023-03-19T09:33:19;13.70;99.90
16128;DHT22;8168;49.036;7.690;2023-03-19T09:35:51;13.70;99.90
16128;DHT22;8168;49.036;7.690;2023-03-19T09:38:22;13.80;99.90
16128;DHT22;8168;49.036;7.690;2023-03-19T09:41:09;13.90;99.90
16128;DHT22;8168;49.036;7.690;2023-03-19T09:43:53;13.90;99.90
16128;DHT22;8168;49.036;7.690;2023-03-19T09:46:51;14.00;99.90
16128;DHT22;8168;49.036;7.690;2023-03-19T09:49:27;14.00;99.90
16128;DHT22;8168;49.036;7.690;2023-03-19T09:52:09;14.10;99.90
16128;DHT22;8168;49.036;7.690;2023-03-19T09:54:47;14.20;99.90
16128;DHT22;8168;49.036;7.690;2023-03-19T09:57:18;14.20;99.90
16128;DHT22;8168;49.036;7.690;2023-03-19T09:59:49;14.20;99.90
16128;DHT22;8168;49.036;7.690;2023-03-19T10:07:53;14.20;99.90
16128;DHT22;8168;49.036;7.690;2023-03-19T10:11:00;14.20;99.90
16128;DHT22;8168;49.036;7.690;2023-03-19T10:16:28;14.20;99.90
16128;DHT22;8168;49.036;7.690;2023-03-19T10:19:02;14.20;99.90
16128;DHT22;8168;49.036;7.690;2023-03-19T10:21:45;14.20;99.90
16128;DHT22;8168;49.036;7.690;2023-03-19T10:27:08;14.20;99.90
16128;DHT22;8168;49.036;7.690;2023-03-19T10:29:40;14.20;99.90
16128;DHT22;8168;49.036;7.690;2023-03-19T10:32:16;14.20;99.90
16128;DHT22;8168;49.036;7.690;2023-03-19T10:34:49;14.10;99.90
16128;DHT22;8168;49.036;7.690;2023-03-19T10:37:22;14.10;99.90
16128;DHT22;8168;49.036;7.690;2023-03-19T10:39:57;14.10;99.90
16128;DHT22;8168;49.036;7.690;2023-03-19T10:45:23;14.10;99.90
16128;DHT22;8168;49.036;7.690;2023-03-19T10:47:56;14.10;99.90
16128;DHT22;8168;49.036;7.690;2023-03-19T10:53:29;14.10;99.90
16128;DHT22;8168;49.036;7.690;2023-03-19T10:56:06;14.00;99.90
16128;DHT22;8168;49.036;7.690;2023-03-19T10:58:37;14.00;99.90
16128;DHT22;8168;49.036;7.690;2023-03-19T11:01:12;14.00;99.90
16128;DHT22;8168;49.036;7.690;2023-03-19T11:03:51;14.00;99.90
16128;DHT22;8168;49.036;7.690;2023-03-19T11:06:35;13.90;99.90
16128;DHT22;8168;49.036;7.690;2023-03-19T11:11:47;13.80;99.90
16128;DHT22;8168;49.036;7.690;2023-03-19T11:14:37;13.80;99.90
16128;DHT22;8168;49.036;7.690;2023-03-19T11:17:47;13.70;99.90
16128;DHT22;8168;49.036;7.690;2023-03-19T11:22:57;13.70;99.90
16128;DHT22;8168;49.036;7.690;2023-03-19T11:28:19;13.60;99.90
16128;DHT22;8168;49.036;7.690;2023-03-19T11:34:30;13.50;99.90
16128;DHT22;8168;49.036;7.690;2023-03-19T11:40:38;13.60;99.90
16128;DHT22;8168;49.036;7.690;2023-03-19T11:43:24;13.60;99.90
16128;DHT22;8168;49.036;7.690;2023-03-19T11:56:26;13.40;99.90
16128;DHT22;8168;49.036;7.690;2023-03-19T12:08:16;13.20;99.90
16128;DHT22;8168;49.036;7.690;2023-03-19T12:11:16;13.20;99.90
16128;DHT22;8168;49.036;7.690;2023-03-19T12:27:46;13.20;99.90
16128;DHT22;8168;49.036;7.690;2023-03-19T12:33:35;13.40;99.90
16128;DHT22;8168;49.036;7.690;2023-03-19T12:36:15;13.40;99.90
16128;DHT22;8168;49.036;7.690;2023-03-19T12:39:16;13.40;99.90
16128;DHT22;8168;49.036;7.690;2023-03-19T12:41:45;13.40;99.90
16128;DHT22;8168;49.036;7.690;2023-03-19T12:44:28;13.40;99.90
16128;DHT22;8168;49.036;7.690;2023-03-19T12:47:07;13.40;99.90
16128;DHT22;8168;49.036;7.690;2023-03-19T12:52:30;13.40;99.90
16128;DHT22;8168;49.036;7.690;2023-03-19T13:03:12;13.40;99.90
16128;DHT22;8168;49.036;7.690;2023-03-19T13:05:58;13.40;99.90
16128;DHT22;8168;49.036;7.690;2023-03-19T13:08:47;13.30;99.90
16128;DHT22;8168;49.036;7.690;2023-03-19T13:11:38;13.40;99.90
16128;DHT22;8168;49.036;7.690;2023-03-19T13:14:41;13.40;99.90
16128;DHT22;8168;49.036;7.690;2023-03-19T13:17:33;13.50;99.90
16128;DHT22;8168;49.036;7.690;2023-03-19T13:20:19;13.60;99.90
16128;DHT22;8168;49.036;7.690;2023-03-19T13:22:55;13.70;99.90
16128;DHT22;8168;49.036;7.690;2023-03-19T13:25:36;13.80;99.90
16128;DHT22;8168;49.036;7.690;2023-03-19T13:28:15;13.90;99.90
16128;DHT22;8168;49.036;7.690;2023-03-19T13:31:18;13.90;99.90
16128;DHT22;8168;49.036;7.690;2023-03-19T13:34:16;14.10;99.90
16128;DHT22;8168;49.036;7.690;2023-03-19T13:36:55;14.20;99.90
16128;DHT22;8168;49.036;7.690;2023-03-19T13:39:31;14.20;99.90
16128;DHT22;8168;49.036;7.690;2023-03-19T13:42:15;14.20;99.90
16128;DHT22;8168;49.036;7.690;2023-03-19T13:44:53;14.20;99.90
16128;DHT22;8168;49.036;7.690;2023-03-19T13:55:58;14.40;99.90
16128;DHT22;8168;49.036;7.690;2023-03-19T13:58:30;14.50;99.90
16128;DHT22;8168;49.036;7.690;2023-03-19T14:04:01;14.60;99.90
16128;DHT22;8168;49.036;7.690;2023-03-19T14:14:55;14.60;99.90
16128;DHT22;8168;49.036;7.690;2023-03-19T14:17:33;14.50;99.90
16128;DHT22;8168;49.036;7.690;2023-03-19T14:28:51;14.30;99.90
16128;DHT22;8168;49.036;7.690;2023-03-19T14:31:27;14.30;99.90
16128;DHT22;8168;49.036;7.690;2023-03-19T14:34:26;14.30;99.90
16128;DHT22;8168;49.036;7.690;2023-03-19T14:39:37;14.30;99.90
16128;DHT22;8168;49.036;7.690;2023-03-19T14:42:38;14.30;99.90
16128;DHT22;8168;49.036;7.690;2023-03-19T14:53:59;14.10;99.90
16128;DHT22;8168;49.036;7.690;2023-03-19T14:56:35;13.90;99.90
16128;DHT22;8168;49.036;7.690;2023-03-19T14:59:09;13.60;99.90
16128;DHT22;8168;49.036;7.690;2023-03-19T15:01:46;13.60;99.90
16128;DHT22;8168;49.036;7.690;2023-03-19T15:04:23;13.40;99.90
16128;DHT22;8168;49.036;7.690;2023-03-19T15:06:57;13.30;99.90
16128;DHT22;8168;49.036;7.690;2023-03-19T15:09:30;13.20;99.90
16128;DHT22;8168;49.036;7.690;2023-03-19T15:15:19;13.00;99.90
16128;DHT22;8168;49.036;7.690;2023-03-19T15:17:58;12.90;99.90
16128;DHT22;8168;49.036;7.690;2023-03-19T15:20:55;12.90;99.90
16128;DHT22;8168;49.036;7.690;2023-03-19T15:23:27;12.90;99.90
16128;DHT22;8168;49.036;7.690;2023-03-19T15:25:59;13.00;99.90
16128;DHT22;8168;49.036;7.690;2023-03-19T15:28:32;13.00;99.90
16128;DHT22;8168;49.036;7.690;2023-03-19T15:31:13;13.00;99.90
16128;DHT22;8168;49.036;7.690;2023-03-19T15:33:44;12.90;99.90
16128;DHT22;8168;49.036;7.690;2023-03-19T15:36:27;12.80;99.90
16128;DHT22;8168;49.036;7.690;2023-03-19T15:39:02;12.70;99.90
16128;DHT22;8168;49.036;7.690;2023-03-19T15:41:38;12.70;99.90
16128;DHT22;8168;49.036;7.690;2023-03-19T15:44:22;12.60;99.90
16128;DHT22;8168;49.036;7.690;2023-03-19T15:46:55;12.70;99.90
16128;DHT22;8168;49.036;7.690;2023-03-19T15:49:34;12.80;99.90
16128;DHT22;8168;49.036;7.690;2023-03-19T15:52:11;12.80;99.90
16128;DHT22;8168;49.036;7.690;2023-03-19T15:54:42;12.90;99.90
16128;DHT22;8168;49.036;7.690;2023-03-19T15:57:14;13.00;99.90
16128;DHT22;8168;49.036;7.690;2023-03-19T15:59:46;13.00;99.90
16128;DHT22;8168;49.036;7.690;2023-03-19T16:02:27;13.10;99.90
16128;DHT22;8168;49.036;7.690;2023-03-19T16:04:59;13.10;99.90
16128;DHT22;8168;49.036;7.690;2023-03-19T16:13:38;13.10;99.90
16128;DHT22;8168;49.036;7.690;2023-03-19T16:23:54;13.20;99.90
16128;DHT22;8168;49.036;7.690;2023-03-19T16:26:36;13.20;99.90
16128;DHT22;8168;49.036;7.690;2023-03-19T16:31:49;13.40;99.90
16128;DHT22;8168;49.036;7.690;2023-03-19T16:36:59;13.50;99.90
16128;DHT22;8168;49.036;7.690;2023-03-19T16:42:16;13.60;99.90
16128;DHT22;8168;49.036;7.690;2023-03-19T16:44:56;13.60;99.90
16128;DHT22;8168;49.036;7.690;2023-03-19T16:47:27;13.60;99.90
16128;DHT22;8168;49.036;7.690;2023-03-19T16:49:57;13.60;99.90
16128;DHT22;8168;49.036;7.690;2023-03-19T16:52:28;13.60;99.90
16128;DHT22;8168;49.036;7.690;2023-03-19T16:54:59;13.50;99.90
16128;DHT22;8168;49.036;7.690;2023-03-19T16:57:30;13.40;99.90
16128;DHT22;8168;49.036;7.690;2023-03-19T17:00:01;13.30;99.90
16128;DHT22;8168;49.036;7.690;2023-03-19T17:02:31;13.20;99.90
16128;DHT22;8168;49.036;7.690;2023-03-19T17:05:02;16.40;99.90
16128;DHT22;8168;49.036;7.690;2023-03-19T17:07:33;13.20;99.90
16128;DHT22;8168;49.036;7.690;2023-03-19T17:10:04;13.10;99.90
16128;DHT22;8168;49.036;7.690;2023-03-19T17:12:34;13.10;99.90
16128;DHT22;8168;49.036;7.690;2023-03-19T17:15:07;13.00;99.90
16128;DHT22;8168;49.036;7.690;2023-03-19T17:17:40;13.00;99.90
16128;DHT22;8168;49.036;7.690;2023-03-19T17:20:37;12.90;99.90
16128;DHT22;8168;49.036;7.690;2023-03-19T17:23:11;12.90;99.90
16128;DHT22;8168;49.036;7.690;2023-03-19T17:25:42;12.90;99.90
16128;DHT22;8168;49.036;7.690;2023-03-19T17:28:13;12.80;99.90
16128;DHT22;8168;49.036;7.690;2023-03-19T17:30:44;12.70;99.90
16128;DHT22;8168;49.036;7.690;2023-03-19T17:33:27;12.40;99.90
16128;DHT22;8168;49.036;7.690;2023-03-19T17:35:58;12.40;99.90
16128;DHT22;8168;49.036;7.690;2023-03-19T17:38:31;12.40;99.90
16128;DHT22;8168;49.036;7.690;2023-03-19T17:41:14;12.40;99.90
16128;DHT22;8168;49.036;7.690;2023-03-19T17:43:46;12.20;99.90
16128;DHT22;8168;49.036;7.690;2023-03-19T17:46:20;12.10;99.90
16128;DHT22;8168;49.036;7.690;2023-03-19T17:48:52;12.10;99.90
16128;DHT22;8168;49.036;7.690;2023-03-19T17:51:23;12.00;99.90
16128;DHT22;8168;49.036;7.690;2023-03-19T17:53:54;11.90;99.90
16128;DHT22;8168;49.036;7.690;2023-03-19T17:56:25;11.80;99.90
16128;DHT22;8168;49.036;7.690;2023-03-19T17:58:56;11.70;99.90
16128;DHT22;8168;49.036;7.690;2023-03-19T18:01:27;11.70;99.90
16128;DHT22;8168;49.036;7.690;2023-03-19T18:03:58;11.40;99.90
16128;DHT22;8168;49.036;7.690;2023-03-19T18:06:34;11.30;99.90
16128;DHT22;8168;49.036;7.690;2023-03-19T18:09:05;11.20;99.90
16128;DHT22;8168;49.036;7.690;2023-03-19T18:11:36;11.30;99.90
16128;DHT22;8168;49.036;7.690;2023-03-19T18:14:06;11.30;99.90
16128;DHT22;8168;49.036;7.690;2023-03-19T18:16:37;11.20;99.90
16128;DHT22;8168;49.036;7.690;2023-03-19T18:19:20;11.30;99.90
16128;DHT22;8168;49.036;7.690;2023-03-19T18:21:52;11.20;99.90
16128;DHT22;8168;49.036;7.690;2023-03-19T18:24:22;11.30;99.90
16128;DHT22;8168;49.036;7.690;2023-03-19T18:26:53;11.30;99.90
16128;DHT22;8168;49.036;7.690;2023-03-19T18:29:24;11.40;99.90
16128;DHT22;8168;49.036;7.690;2023-03-19T18:31:58;11.40;99.90
16128;DHT22;8168;49.036;7.690;2023-03-19T18:34:31;11.40;99.90
16128;DHT22;8168;49.036;7.690;2023-03-19T18:37:02;11.40;99.90
16128;DHT22;8168;49.036;7.690;2023-03-19T18:39:33;11.30;99.90
16128;DHT22;8168;49.036;7.690;2023-03-19T18:42:09;11.30;99.90
16128;DHT22;8168;49.036;7.690;2023-03-19T18:44:41;11.30;99.90
16128;DHT22;8168;49.036;7.690;2023-03-19T18:47:13;11.30;99.90
16128;DHT22;8168;49.036;7.690;2023-03-19T18:49:45;11.20;99.90
16128;DHT22;8168;49.036;7.690;2023-03-19T18:52:15;11.20;99.90
16128;DHT22;8168;49.036;7.690;2023-03-19T18:54:46;11.10;99.90
16128;DHT22;8168;49.036;7.690;2023-03-19T18:57:17;11.10;99.90
16128;DHT22;8168;49.036;7.690;2023-03-19T18:59:47;11.00;99.90
16128;DHT22;8168;49.036;7.690;2023-03-19T19:04:57;11.00;99.90
16128;DHT22;8168;49.036;7.690;2023-03-19T19:07:28;10.90;99.90
16128;DHT22;8168;49.036;7.690;2023-03-19T19:09:59;10.90;99.90